Cottonwood Heights, Utah
Current Conditions -  °F | °C
As of 1:53 AM on Monday 20 Oct 2014 (Local Time) from KSLC Reporting Station
Clear Clear  
Wind Chill: 51°   Ceiling: Unl
Heat Index: 51°   Visibility: 10mi
Dew Point: 39°   Wind: 8mph
Humidity: 63%   Direction: 140°SE
Pressure: 30.02"   Gusts: NA
Location:  40.5945°N, 111.827°W
Report Text: KSLC 200753Z 14007KT 10SM CLR 11/04 A3002 RMK AO2 SLP133 T01060039
Loading
Personal Weather Stations






























Interactive Weather Map
Tropical Storm Tracking
New forecast layout! Learn more

10-Day Weather Forecast

Advertisements
Track Severe Weather on mobile